sensor_id;sensor_type;location;lat;lon;timestamp;pressure;altitude;pressure_sealevel;temperature;humidity
62697;BME280;48761;42.680;23.312;2023-04-09T00:01:22;95030.06;;;6.46;88.75
62697;BME280;48761;42.680;23.312;2023-04-09T00:03:48;95019.75;;;6.59;87.44
62697;BME280;48761;42.680;23.312;2023-04-09T00:06:13;95033.59;;;6.81;86.34
62697;BME280;48761;42.680;23.312;2023-04-09T00:08:39;95037.22;;;6.96;86.08
62697;BME280;48761;42.680;23.312;2023-04-09T00:11:05;95041.72;;;7.12;85.23
62697;BME280;48761;42.680;23.312;2023-04-09T00:13:31;95039.97;;;7.11;84.59
62697;BME280;48761;42.680;23.312;2023-04-09T00:15:57;95041.28;;;7.20;84.87
62697;BME280;48761;42.680;23.312;2023-04-09T00:18:23;95044.47;;;7.26;84.84
62697;BME280;48761;42.680;23.312;2023-04-09T00:20:49;95047.34;;;7.22;85.31
62697;BME280;48761;42.680;23.312;2023-04-09T00:23:15;95011.28;;;6.87;85.72
62697;BME280;48761;42.680;23.312;2023-04-09T00:25:41;95048.38;;;7.19;86.09
62697;BME280;48761;42.680;23.312;2023-04-09T00:28:07;95039.63;;;7.35;85.03
62697;BME280;48761;42.680;23.312;2023-04-09T00:30:32;95040.22;;;7.40;84.47
62697;BME280;48761;42.680;23.312;2023-04-09T00:32:58;95033.81;;;7.44;83.69
62697;BME280;48761;42.680;23.312;2023-04-09T00:35:24;95037.63;;;7.22;84.75
62697;BME280;48761;42.680;23.312;2023-04-09T00:37:50;95043.94;;;6.68;85.99
62697;BME280;48761;42.680;23.312;2023-04-09T00:40:16;95043.00;;;6.87;85.61
62697;BME280;48761;42.680;23.312;2023-04-09T00:42:42;95049.34;;;7.00;85.58
62697;BME280;48761;42.680;23.312;2023-04-09T00:45:08;95046.78;;;6.99;85.39
62697;BME280;48761;42.680;23.312;2023-04-09T00:47:34;95036.03;;;6.68;86.18
62697;BME280;48761;42.680;23.312;2023-04-09T00:50:01;95043.50;;;6.77;86.87
62697;BME280;48761;42.680;23.312;2023-04-09T00:52:27;95039.84;;;6.80;86.84
62697;BME280;48761;42.680;23.312;2023-04-09T00:54:54;95041.94;;;6.73;87.11
62697;BME280;48761;42.680;23.312;2023-04-09T00:57:19;95032.56;;;6.67;87.13
62697;BME280;48761;42.680;23.312;2023-04-09T00:59:45;95038.53;;;6.53;87.45
62697;BME280;48761;42.680;23.312;2023-04-09T01:02:11;95035.84;;;6.37;87.46
62697;BME280;48761;42.680;23.312;2023-04-09T01:04:39;95039.06;;;6.42;88.10
62697;BME280;48761;42.680;23.312;2023-04-09T01:07:25;95041.00;;;6.74;87.29
62697;BME280;48761;42.680;23.312;2023-04-09T01:15:22;95038.22;;;6.77;86.61
62697;BME280;48761;42.680;23.312;2023-04-09T01:17:55;95053.78;;;7.00;86.02
62697;BME280;48761;42.680;23.312;2023-04-09T01:20:41;95043.53;;;6.93;85.13
62697;BME280;48761;42.680;23.312;2023-04-09T01:29:02;95040.63;;;6.98;84.34
62697;BME280;48761;42.680;23.312;2023-04-09T01:31:33;95048.63;;;7.14;84.12
62697;BME280;48761;42.680;23.312;2023-04-09T01:34:01;95019.19;;;7.04;84.18
62697;BME280;48761;42.680;23.312;2023-04-09T01:36:29;95059.00;;;7.35;84.01
62697;BME280;48761;42.680;23.312;2023-04-09T01:38:55;95051.88;;;7.36;83.94
62697;BME280;48761;42.680;23.312;2023-04-09T01:41:22;95046.72;;;7.50;83.43
62697;BME280;48761;42.680;23.312;2023-04-09T01:43:52;95045.94;;;7.48;83.42
62697;BME280;48761;42.680;23.312;2023-04-09T01:46:19;95044.06;;;7.50;83.46
62697;BME280;48761;42.680;23.312;2023-04-09T01:48:45;95056.63;;;7.63;83.02
62697;BME280;48761;42.680;23.312;2023-04-09T01:51:12;95055.25;;;7.56;82.72
62697;BME280;48761;42.680;23.312;2023-04-09T01:53:40;95028.81;;;7.56;83.01
62697;BME280;48761;42.680;23.312;2023-04-09T01:56:07;95046.13;;;7.45;83.56
62697;BME280;48761;42.680;23.312;2023-04-09T01:58:33;95055.03;;;7.26;84.66
62697;BME280;48761;42.680;23.312;2023-04-09T02:01:06;95032.19;;;7.25;84.33
62697;BME280;48761;42.680;23.312;2023-04-09T02:03:45;95046.19;;;7.44;83.75
62697;BME280;48761;42.680;23.312;2023-04-09T02:08:51;95048.94;;;7.58;82.93
62697;BME280;48761;42.680;23.312;2023-04-09T02:11:17;95049.09;;;7.71;82.97
62697;BME280;48761;42.680;23.312;2023-04-09T02:13:48;95026.47;;;7.49;82.47
62697;BME280;48761;42.680;23.312;2023-04-09T02:16:14;95052.88;;;7.67;81.84
62697;BME280;48761;42.680;23.312;2023-04-09T02:18:41;95054.91;;;7.62;81.68
62697;BME280;48761;42.680;23.312;2023-04-09T02:21:08;95036.97;;;7.35;82.60
62697;BME280;48761;42.680;23.312;2023-04-09T02:23:34;95050.81;;;7.40;82.82
62697;BME280;48761;42.680;23.312;2023-04-09T02:26:00;95042.31;;;7.17;84.11
62697;BME280;48761;42.680;23.312;2023-04-09T02:28:26;95041.38;;;7.18;83.28
62697;BME280;48761;42.680;23.312;2023-04-09T02:30:52;95050.94;;;6.87;85.03
62697;BME280;48761;42.680;23.312;2023-04-09T02:33:18;95024.66;;;6.83;84.56
62697;BME280;48761;42.680;23.312;2023-04-09T02:35:44;95056.06;;;6.90;85.11
62697;BME280;48761;42.680;23.312;2023-04-09T02:38:10;95037.38;;;6.93;84.65
62697;BME280;48761;42.680;23.312;2023-04-09T02:40:35;95044.50;;;7.09;84.23
62697;BME280;48761;42.680;23.312;2023-04-09T02:43:01;95031.19;;;6.76;84.86
62697;BME280;48761;42.680;23.312;2023-04-09T02:45:27;95043.50;;;6.77;85.44
62697;BME280;48761;42.680;23.312;2023-04-09T02:47:53;95049.22;;;6.68;86.10
62697;BME280;48761;42.680;23.312;2023-04-09T02:50:19;95039.38;;;6.71;86.50
62697;BME280;48761;42.680;23.312;2023-04-09T02:52:46;95033.06;;;6.92;84.86
62697;BME280;48761;42.680;23.312;2023-04-09T02:55:12;95032.28;;;6.90;84.83
62697;BME280;48761;42.680;23.312;2023-04-09T02:57:38;95036.56;;;6.92;84.62
62697;BME280;48761;42.680;23.312;2023-04-09T03:00:04;95037.06;;;6.99;84.60
62697;BME280;48761;42.680;23.312;2023-04-09T03:02:30;95034.13;;;6.88;84.46
62697;BME280;48761;42.680;23.312;2023-04-09T03:04:56;95007.69;;;6.88;84.41
62697;BME280;48761;42.680;23.312;2023-04-09T03:07:22;95025.69;;;6.81;84.67
62697;BME280;48761;42.680;23.312;2023-04-09T03:09:48;95036.97;;;6.67;85.33
62697;BME280;48761;42.680;23.312;2023-04-09T03:12:14;95008.41;;;6.39;85.50
62697;BME280;48761;42.680;23.312;2023-04-09T03:14:40;95027.50;;;6.45;86.02
62697;BME280;48761;42.680;23.312;2023-04-09T03:17:06;95038.06;;;6.45;86.56
62697;BME280;48761;42.680;23.312;2023-04-09T03:19:31;95032.47;;;6.33;86.95
62697;BME280;48761;42.680;23.312;2023-04-09T03:21:57;95041.31;;;6.50;86.66
62697;BME280;48761;42.680;23.312;2023-04-09T03:24:23;95043.19;;;6.48;86.37
62697;BME280;48761;42.680;23.312;2023-04-09T03:26:49;95030.38;;;6.40;86.41
62697;BME280;48761;42.680;23.312;2023-04-09T03:29:15;95034.41;;;6.30;86.70
62697;BME280;48761;42.680;23.312;2023-04-09T03:31:41;95035.25;;;6.30;86.81
62697;BME280;48761;42.680;23.312;2023-04-09T03:34:07;95030.47;;;6.38;86.58
62697;BME280;48761;42.680;23.312;2023-04-09T03:36:33;95040.09;;;6.39;86.49
62697;BME280;48761;42.680;23.312;2023-04-09T03:38:59;95022.34;;;6.06;87.71
62697;BME280;48761;42.680;23.312;2023-04-09T03:41:25;95036.59;;;6.02;88.38
62697;BME280;48761;42.680;23.312;2023-04-09T03:43:51;95042.47;;;5.89;89.11
62697;BME280;48761;42.680;23.312;2023-04-09T03:46:17;95035.66;;;5.85;89.67
62697;BME280;48761;42.680;23.312;2023-04-09T03:48:44;95041.44;;;5.74;90.01
62697;BME280;48761;42.680;23.312;2023-04-09T03:51:11;95008.91;;;5.56;90.54
62697;BME280;48761;42.680;23.312;2023-04-09T03:53:37;95051.19;;;5.91;89.90
62697;BME280;48761;42.680;23.312;2023-04-09T03:56:03;95050.69;;;5.83;89.58
62697;BME280;48761;42.680;23.312;2023-04-09T03:58:29;95054.19;;;5.64;90.27
62697;BME280;48761;42.680;23.312;2023-04-09T04:00:55;95042.81;;;5.64;90.52
62697;BME280;48761;42.680;23.312;2023-04-09T04:03:21;95050.97;;;5.77;90.01
62697;BME280;48761;42.680;23.312;2023-04-09T04:05:47;95048.47;;;5.93;89.22
62697;BME280;48761;42.680;23.312;2023-04-09T04:08:13;95052.03;;;5.92;89.01
62697;BME280;48761;42.680;23.312;2023-04-09T04:10:39;95049.25;;;5.95;88.60
62697;BME280;48761;42.680;23.312;2023-04-09T04:13:05;95051.72;;;6.18;87.60
62697;BME280;48761;42.680;23.312;2023-04-09T04:15:31;95051.88;;;6.14;87.13
62697;BME280;48761;42.680;23.312;2023-04-09T04:17:57;94991.41;;;5.90;87.00
62697;BME280;48761;42.680;23.312;2023-04-09T04:20:23;95049.94;;;6.18;87.26
62697;BME280;48761;42.680;23.312;2023-04-09T04:22:49;95056.03;;;6.01;87.57
62697;BME280;48761;42.680;23.312;2023-04-09T04:25:15;95059.56;;;6.00;87.96
62697;BME280;48761;42.680;23.312;2023-04-09T04:27:41;95051.47;;;5.85;88.73
62697;BME280;48761;42.680;23.312;2023-04-09T04:30:07;95041.09;;;5.63;89.35
62697;BME280;48761;42.680;23.312;2023-04-09T04:32:33;95050.75;;;5.81;89.42
62697;BME280;48761;42.680;23.312;2023-04-09T04:34:59;95044.66;;;5.81;89.21
62697;BME280;48761;42.680;23.312;2023-04-09T04:37:25;95062.34;;;5.79;89.25
62697;BME280;48761;42.680;23.312;2023-04-09T04:39:51;95051.78;;;5.79;89.48
62697;BME280;48761;42.680;23.312;2023-04-09T04:42:17;95058.94;;;5.94;89.05
62697;BME280;48761;42.680;23.312;2023-04-09T04:44:43;95029.25;;;5.71;88.64
62697;BME280;48761;42.680;23.312;2023-04-09T04:47:09;95032.28;;;5.64;89.37
62697;BME280;48761;42.680;23.312;2023-04-09T04:49:35;95057.97;;;5.78;89.40
62697;BME280;48761;42.680;23.312;2023-04-09T04:52:01;95064.19;;;5.77;89.19
62697;BME280;48761;42.680;23.312;2023-04-09T04:54:27;95062.41;;;5.77;88.83
62697;BME280;48761;42.680;23.312;2023-04-09T04:56:53;95058.91;;;5.77;89.05
62697;BME280;48761;42.680;23.312;2023-04-09T04:59:18;95067.03;;;5.91;88.91
62697;BME280;48761;42.680;23.312;2023-04-09T05:01:44;95060.16;;;5.87;89.16
62697;BME280;48761;42.680;23.312;2023-04-09T05:04:10;95064.03;;;5.80;89.77
62697;BME280;48761;42.680;23.312;2023-04-09T05:06:36;95058.31;;;5.89;89.33
62697;BME280;48761;42.680;23.312;2023-04-09T05:09:02;95073.09;;;5.93;89.67
62697;BME280;48761;42.680;23.312;2023-04-09T05:11:28;95042.56;;;5.88;89.68
62697;BME280;48761;42.680;23.312;2023-04-09T05:13:54;95059.28;;;6.06;89.30
62697;BME280;48761;42.680;23.312;2023-04-09T05:16:20;95041.06;;;5.82;89.23
62697;BME280;48761;42.680;23.312;2023-04-09T05:18:46;95059.44;;;6.03;89.25
62697;BME280;48761;42.680;23.312;2023-04-09T05:21:12;95075.13;;;6.06;89.35
62697;BME280;48761;42.680;23.312;2023-04-09T05:23:38;95060.34;;;6.02;89.49
62697;BME280;48761;42.680;23.312;2023-04-09T05:26:04;95058.63;;;6.20;89.70
62697;BME280;48761;42.680;23.312;2023-04-09T05:28:30;95063.06;;;6.37;88.85
62697;BME280;48761;42.680;23.312;2023-04-09T05:30:56;95070.53;;;6.47;88.12
62697;BME280;48761;42.680;23.312;2023-04-09T05:33:22;95073.63;;;6.37;88.15
62697;BME280;48761;42.680;23.312;2023-04-09T05:35:47;95065.47;;;6.42;88.83
62697;BME280;48761;42.680;23.312;2023-04-09T05:38:13;95067.44;;;6.56;88.17
62697;BME280;48761;42.680;23.312;2023-04-09T05:40:39;95069.13;;;6.57;88.21
62697;BME280;48761;42.680;23.312;2023-04-09T05:43:05;95062.06;;;6.58;87.36
62697;BME280;48761;42.680;23.312;2023-04-09T05:45:31;95070.53;;;6.65;86.80
62697;BME280;48761;42.680;23.312;2023-04-09T05:47:57;95076.13;;;6.58;87.39
62697;BME280;48761;42.680;23.312;2023-04-09T05:50:23;95074.41;;;6.57;86.84
62697;BME280;48761;42.680;23.312;2023-04-09T05:52:49;95078.91;;;6.55;86.51
62697;BME280;48761;42.680;23.312;2023-04-09T05:55:15;95081.75;;;6.52;86.49
62697;BME280;48761;42.680;23.312;2023-04-09T05:57:41;95076.75;;;6.46;86.36
62697;BME280;48761;42.680;23.312;2023-04-09T06:00:07;95071.16;;;6.52;86.15
62697;BME280;48761;42.680;23.312;2023-04-09T06:02:33;95069.44;;;6.51;85.47
62697;BME280;48761;42.680;23.312;2023-04-09T06:04:59;95067.91;;;6.65;85.76
62697;BME280;48761;42.680;23.312;2023-04-09T06:07:25;95078.63;;;6.79;84.56
62697;BME280;48761;42.680;23.312;2023-04-09T06:09:51;95079.69;;;6.75;83.78
62697;BME280;48761;42.680;23.312;2023-04-09T06:12:17;95028.28;;;6.47;83.70
62697;BME280;48761;42.680;23.312;2023-04-09T06:14:42;95060.56;;;6.88;82.90
62697;BME280;48761;42.680;23.312;2023-04-09T06:17:08;95088.53;;;7.10;81.48
62697;BME280;48761;42.680;23.312;2023-04-09T06:19:34;95076.75;;;7.49;80.42
62697;BME280;48761;42.680;23.312;2023-04-09T06:22:00;95054.88;;;7.29;80.22
62697;BME280;48761;42.680;23.312;2023-04-09T06:24:26;95077.72;;;7.31;80.18
62697;BME280;48761;42.680;23.312;2023-04-09T06:26:52;95081.19;;;7.49;80.27
62697;BME280;48761;42.680;23.312;2023-04-09T06:29:18;95078.19;;;7.71;79.10
62697;BME280;48761;42.680;23.312;2023-04-09T06:31:43;95042.59;;;7.61;77.08
62697;BME280;48761;42.680;23.312;2023-04-09T06:34:09;95066.78;;;7.87;77.17
62697;BME280;48761;42.680;23.312;2023-04-09T06:36:35;95071.28;;;8.17;76.42
62697;BME280;48761;42.680;23.312;2023-04-09T06:39:01;95079.34;;;8.78;75.25
62697;BME280;48761;42.680;23.312;2023-04-09T06:41:27;95057.25;;;8.32;75.67
62697;BME280;48761;42.680;23.312;2023-04-09T06:43:53;95081.31;;;8.27;75.60
62697;BME280;48761;42.680;23.312;2023-04-09T06:46:19;95083.66;;;8.33;76.26
62697;BME280;48761;42.680;23.312;2023-04-09T06:48:45;95047.59;;;8.14;75.88
62697;BME280;48761;42.680;23.312;2023-04-09T06:51:11;95089.06;;;8.15;76.41
62697;BME280;48761;42.680;23.312;2023-04-09T06:53:38;95078.06;;;7.91;76.85
62697;BME280;48761;42.680;23.312;2023-04-09T06:56:04;95090.88;;;7.99;75.98
62697;BME280;48761;42.680;23.312;2023-04-09T06:58:30;95091.28;;;7.91;77.35
62697;BME280;48761;42.680;23.312;2023-04-09T07:00:56;95096.22;;;8.13;76.49
62697;BME280;48761;42.680;23.312;2023-04-09T07:03:22;95074.50;;;8.23;75.56
62697;BME280;48761;42.680;23.312;2023-04-09T07:05:48;95079.66;;;8.26;73.55
62697;BME280;48761;42.680;23.312;2023-04-09T07:08:14;95094.72;;;8.40;73.23
62697;BME280;48761;42.680;23.312;2023-04-09T07:10:40;95052.69;;;8.03;74.19
62697;BME280;48761;42.680;23.312;2023-04-09T07:13:06;95099.63;;;8.15;74.84
62697;BME280;48761;42.680;23.312;2023-04-09T07:15:32;95091.44;;;8.20;75.26
62697;BME280;48761;42.680;23.312;2023-04-09T07:17:58;95087.75;;;8.06;75.37
62697;BME280;48761;42.680;23.312;2023-04-09T07:20:24;95086.66;;;7.94;75.72
62697;BME280;48761;42.680;23.312;2023-04-09T07:22:50;95075.56;;;7.88;75.43
62697;BME280;48761;42.680;23.312;2023-04-09T07:25:16;95100.50;;;7.83;74.83
62697;BME280;48761;42.680;23.312;2023-04-09T07:27:42;95096.25;;;7.81;75.29
62697;BME280;48761;42.680;23.312;2023-04-09T07:30:08;95077.78;;;7.63;74.59
62697;BME280;48761;42.680;23.312;2023-04-09T07:32:34;95094.69;;;7.77;74.41
62697;BME280;48761;42.680;23.312;2023-04-09T07:35:02;95088.28;;;7.65;73.61
62697;BME280;48761;42.680;23.312;2023-04-09T07:37:28;95080.09;;;7.53;72.80
62697;BME280;48761;42.680;23.312;2023-04-09T07:39:54;95059.53;;;7.91;71.31
62697;BME280;48761;42.680;23.312;2023-04-09T07:42:19;95093.75;;;8.10;70.82
62697;BME280;48761;42.680;23.312;2023-04-09T07:44:45;95116.31;;;8.65;69.84
62697;BME280;48761;42.680;23.312;2023-04-09T07:47:11;95087.22;;;8.79;69.39
62697;BME280;48761;42.680;23.312;2023-04-09T07:49:37;95102.19;;;8.17;70.10
62697;BME280;48761;42.680;23.312;2023-04-09T07:52:04;95096.41;;;8.57;69.84
62697;BME280;48761;42.680;23.312;2023-04-09T07:54:30;95102.75;;;8.85;67.91
62697;BME280;48761;42.680;23.312;2023-04-09T07:56:56;95092.59;;;8.47;69.18
62697;BME280;48761;42.680;23.312;2023-04-09T07:59:23;95111.22;;;8.61;68.79
62697;BME280;48761;42.680;23.312;2023-04-09T08:01:49;95112.41;;;8.72;68.11
62697;BME280;48761;42.680;23.312;2023-04-09T08:04:15;95120.09;;;8.91;67.70
62697;BME280;48761;42.680;23.312;2023-04-09T08:06:40;95126.47;;;9.03;67.77
62697;BME280;48761;42.680;23.312;2023-04-09T08:09:06;95095.38;;;8.91;67.21
62697;BME280;48761;42.680;23.312;2023-04-09T08:11:32;95115.81;;;8.74;67.80
62697;BME280;48761;42.680;23.312;2023-04-09T08:13:58;95119.88;;;8.80;66.91
62697;BME280;48761;42.680;23.312;2023-04-09T08:16:24;95115.16;;;8.54;67.67
62697;BME280;48761;42.680;23.312;2023-04-09T08:18:50;95088.34;;;8.44;67.33
62697;BME280;48761;42.680;23.312;2023-04-09T08:21:16;95118.03;;;8.66;68.95
62697;BME280;48761;42.680;23.312;2023-04-09T08:23:43;95126.56;;;8.71;67.63
62697;BME280;48761;42.680;23.312;2023-04-09T08:26:09;95129.56;;;8.95;66.42
62697;BME280;48761;42.680;23.312;2023-04-09T08:28:35;95122.03;;;9.04;66.09
62697;BME280;48761;42.680;23.312;2023-04-09T08:31:01;95123.78;;;8.89;67.05
62697;BME280;48761;42.680;23.312;2023-04-09T08:33:26;95126.03;;;8.80;67.37
62697;BME280;48761;42.680;23.312;2023-04-09T08:35:52;95110.25;;;8.93;67.55
62697;BME280;48761;42.680;23.312;2023-04-09T08:38:18;95132.06;;;8.68;68.21
62697;BME280;48761;42.680;23.312;2023-04-09T08:40:44;95124.41;;;8.47;69.31
62697;BME280;48761;42.680;23.312;2023-04-09T08:43:14;95125.66;;;8.72;68.58
62697;BME280;48761;42.680;23.312;2023-04-09T08:45:40;95116.25;;;9.12;67.95
62697;BME280;48761;42.680;23.312;2023-04-09T08:48:08;95125.00;;;9.28;68.14
62697;BME280;48761;42.680;23.312;2023-04-09T08:50:35;95125.97;;;9.42;67.36
62697;BME280;48761;42.680;23.312;2023-04-09T08:53:02;95110.31;;;9.23;67.79
62697;BME280;48761;42.680;23.312;2023-04-09T08:55:29;95103.22;;;9.67;66.98
62697;BME280;48761;42.680;23.312;2023-04-09T08:57:55;95116.09;;;9.59;66.57
62697;BME280;48761;42.680;23.312;2023-04-09T09:00:21;95115.63;;;9.52;67.22
62697;BME280;48761;42.680;23.312;2023-04-09T09:05:37;95118.38;;;9.36;67.70
62697;BME280;48761;42.680;23.312;2023-04-09T09:08:03;95092.31;;;9.43;67.01
62697;BME280;48761;42.680;23.312;2023-04-09T09:10:43;95091.78;;;8.77;69.00
62697;BME280;48761;42.680;23.312;2023-04-09T09:13:25;95119.22;;;9.22;67.99
62697;BME280;48761;42.680;23.312;2023-04-09T09:15:53;95100.94;;;9.46;67.77
62697;BME280;48761;42.680;23.312;2023-04-09T09:18:22;95083.84;;;9.80;66.02
62697;BME280;48761;42.680;23.312;2023-04-09T09:21:12;95107.97;;;9.47;66.35
62697;BME280;48761;42.680;23.312;2023-04-09T09:23:38;95092.22;;;9.44;66.81
62697;BME280;48761;42.680;23.312;2023-04-09T09:28:37;95069.59;;;8.78;67.11
62697;BME280;48761;42.680;23.312;2023-04-09T09:31:10;95078.31;;;8.80;68.44
62697;BME280;48761;42.680;23.312;2023-04-09T09:33:37;95092.38;;;8.97;67.37
62697;BME280;48761;42.680;23.312;2023-04-09T09:36:03;95087.19;;;9.39;66.56
62697;BME280;48761;42.680;23.312;2023-04-09T09:38:29;95071.53;;;9.64;65.91
62697;BME280;48761;42.680;23.312;2023-04-09T09:40:55;95085.56;;;9.81;65.17
62697;BME280;48761;42.680;23.312;2023-04-09T09:43:22;95076.09;;;9.62;66.29
62697;BME280;48761;42.680;23.312;2023-04-09T09:45:48;95077.03;;;9.61;66.23
62697;BME280;48761;42.680;23.312;2023-04-09T09:48:14;95075.69;;;9.68;65.65
62697;BME280;48761;42.680;23.312;2023-04-09T09:50:41;95046.97;;;9.75;64.54
62697;BME280;48761;42.680;23.312;2023-04-09T09:53:09;95075.44;;;10.15;63.99
62697;BME280;48761;42.680;23.312;2023-04-09T09:55:40;95070.44;;;10.79;62.28
62697;BME280;48761;42.680;23.312;2023-04-09T09:58:15;95077.72;;;10.07;63.03
62697;BME280;48761;42.680;23.312;2023-04-09T10:00:43;95024.53;;;9.94;62.47
62697;BME280;48761;42.680;23.312;2023-04-09T10:03:14;95063.19;;;9.56;64.20
62697;BME280;48761;42.680;23.312;2023-04-09T10:05:40;95058.69;;;9.58;64.13
62697;BME280;48761;42.680;23.312;2023-04-09T10:08:06;95068.66;;;9.82;63.23
62697;BME280;48761;42.680;23.312;2023-04-09T10:10:33;95066.19;;;9.93;61.66
62697;BME280;48761;42.680;23.312;2023-04-09T10:12:59;95058.22;;;10.49;59.97
62697;BME280;48761;42.680;23.312;2023-04-09T10:15:28;95071.06;;;10.83;58.49
62697;BME280;48761;42.680;23.312;2023-04-09T10:17:54;95074.16;;;11.03;57.78
62697;BME280;48761;42.680;23.312;2023-04-09T10:20:26;95046.28;;;10.69;58.47
62697;BME280;48761;42.680;23.312;2023-04-09T10:22:56;95057.38;;;10.20;59.72
62697;BME280;48761;42.680;23.312;2023-04-09T10:25:22;95047.47;;;10.50;58.93
62697;BME280;48761;42.680;23.312;2023-04-09T10:28:01;95054.88;;;10.73;58.81
62697;BME280;48761;42.680;23.312;2023-04-09T10:30:31;95044.38;;;11.10;58.62
62697;BME280;48761;42.680;23.312;2023-04-09T10:33:08;95044.25;;;11.51;58.01
62697;BME280;48761;42.680;23.312;2023-04-09T10:35:34;95048.44;;;11.29;57.00
62697;BME280;48761;42.680;23.312;2023-04-09T10:38:00;95052.38;;;11.10;56.98
62697;BME280;48761;42.680;23.312;2023-04-09T10:40:27;95044.34;;;10.58;58.03
62697;BME280;48761;42.680;23.312;2023-04-09T10:42:57;95025.00;;;10.56;58.02
62697;BME280;48761;42.680;23.312;2023-04-09T10:45:24;95034.19;;;11.04;56.69
62697;BME280;48761;42.680;23.312;2023-04-09T10:47:49;95027.78;;;10.94;57.48
62697;BME280;48761;42.680;23.312;2023-04-09T10:50:26;95038.00;;;10.74;57.93
62697;BME280;48761;42.680;23.312;2023-04-09T10:52:54;95022.03;;;10.74;58.29
62697;BME280;48761;42.680;23.312;2023-04-09T10:55:47;95013.44;;;10.42;59.22
62697;BME280;48761;42.680;23.312;2023-04-09T10:58:13;95018.19;;;10.78;58.51
62697;BME280;48761;42.680;23.312;2023-04-09T11:00:40;95011.31;;;10.48;58.84
62697;BME280;48761;42.680;23.312;2023-04-09T11:03:19;95011.94;;;10.79;58.40
62697;BME280;48761;42.680;23.312;2023-04-09T11:05:47;95025.47;;;10.48;58.63
62697;BME280;48761;42.680;23.312;2023-04-09T11:08:15;95005.91;;;10.36;58.79
62697;BME280;48761;42.680;23.312;2023-04-09T11:10:42;95012.25;;;10.47;58.82
62697;BME280;48761;42.680;23.312;2023-04-09T11:13:12;95002.22;;;10.65;57.95
62697;BME280;48761;42.680;23.312;2023-04-09T11:15:39;94999.94;;;10.46;57.76
62697;BME280;48761;42.680;23.312;2023-04-09T11:18:05;95002.69;;;10.72;57.93
62697;BME280;48761;42.680;23.312;2023-04-09T11:20:33;95007.16;;;10.71;58.01
62697;BME280;48761;42.680;23.312;2023-04-09T11:22:59;95001.84;;;10.84;57.51
62697;BME280;48761;42.680;23.312;2023-04-09T11:25:27;95004.16;;;11.02;56.27
62697;BME280;48761;42.680;23.312;2023-04-09T11:27:53;94993.22;;;10.81;58.60
62697;BME280;48761;42.680;23.312;2023-04-09T11:30:20;95003.19;;;10.90;58.87
62697;BME280;48761;42.680;23.312;2023-04-09T11:32:47;94996.09;;;11.04;57.40
62697;BME280;48761;42.680;23.312;2023-04-09T11:35:18;95003.97;;;10.79;57.69
62697;BME280;48761;42.680;23.312;2023-04-09T11:37:44;94979.06;;;10.80;58.07
62697;BME280;48761;42.680;23.312;2023-04-09T11:40:14;94993.53;;;10.89;58.58
62697;BME280;48761;42.680;23.312;2023-04-09T11:42:40;94976.72;;;11.02;59.50
62697;BME280;48761;42.680;23.312;2023-04-09T11:45:07;94971.59;;;11.12;58.81
62697;BME280;48761;42.680;23.312;2023-04-09T11:47:34;94989.44;;;11.36;57.16
62697;BME280;48761;42.680;23.312;2023-04-09T11:50:00;94991.56;;;11.30;57.06
62697;BME280;48761;42.680;23.312;2023-04-09T11:52:26;94988.94;;;11.17;56.36
62697;BME280;48761;42.680;23.312;2023-04-09T11:54:52;94976.28;;;11.08;56.30
62697;BME280;48761;42.680;23.312;2023-04-09T11:57:18;94963.09;;;11.06;55.58
62697;BME280;48761;42.680;23.312;2023-04-09T11:59:44;94966.81;;;11.17;54.25
62697;BME280;48761;42.680;23.312;2023-04-09T12:02:10;94981.59;;;11.21;54.21
62697;BME280;48761;42.680;23.312;2023-04-09T12:04:36;94954.91;;;10.96;53.76
62697;BME280;48761;42.680;23.312;2023-04-09T12:07:07;94962.97;;;10.95;54.19
62697;BME280;48761;42.680;23.312;2023-04-09T12:09:33;94975.53;;;11.19;55.36
62697;BME280;48761;42.680;23.312;2023-04-09T12:11:59;94960.09;;;11.24;54.77
62697;BME280;48761;42.680;23.312;2023-04-09T12:14:26;94940.50;;;11.25;54.15
62697;BME280;48761;42.680;23.312;2023-04-09T12:16:52;94972.38;;;11.51;55.39
62697;BME280;48761;42.680;23.312;2023-04-09T12:19:19;94971.53;;;11.51;55.48
62697;BME280;48761;42.680;23.312;2023-04-09T12:21:49;94964.72;;;11.47;55.96
62697;BME280;48761;42.680;23.312;2023-04-09T12:24:17;94961.00;;;11.49;56.02
62697;BME280;48761;42.680;23.312;2023-04-09T12:26:46;94964.44;;;11.63;56.67
62697;BME280;48761;42.680;23.312;2023-04-09T12:29:17;94936.81;;;11.52;56.41
62697;BME280;48761;42.680;23.312;2023-04-09T12:31:44;94954.06;;;11.84;56.40
62697;BME280;48761;42.680;23.312;2023-04-09T12:34:10;94958.84;;;12.04;54.75
62697;BME280;48761;42.680;23.312;2023-04-09T12:36:38;94951.81;;;12.16;53.74
62697;BME280;48761;42.680;23.312;2023-04-09T12:39:04;94962.56;;;12.14;52.92
62697;BME280;48761;42.680;23.312;2023-04-09T12:41:30;94962.69;;;11.88;53.22
62697;BME280;48761;42.680;23.312;2023-04-09T12:43:56;94952.63;;;11.92;52.87
62697;BME280;48761;42.680;23.312;2023-04-09T12:46:22;94943.00;;;11.77;52.93
62697;BME280;48761;42.680;23.312;2023-04-09T12:48:47;94941.38;;;11.88;52.57
62697;BME280;48761;42.680;23.312;2023-04-09T12:51:13;94936.81;;;12.02;52.71
62697;BME280;48761;42.680;23.312;2023-04-09T12:53:39;94935.72;;;12.04;52.16
62697;BME280;48761;42.680;23.312;2023-04-09T12:56:05;94940.34;;;11.77;52.60
62697;BME280;48761;42.680;23.312;2023-04-09T12:58:32;94947.81;;;11.72;53.14
62697;BME280;48761;42.680;23.312;2023-04-09T13:00:58;94942.03;;;11.79;52.76
62697;BME280;48761;42.680;23.312;2023-04-09T13:03:24;94938.19;;;11.83;51.72
62697;BME280;48761;42.680;23.312;2023-04-09T13:05:50;94933.13;;;11.66;52.31
62697;BME280;48761;42.680;23.312;2023-04-09T13:08:16;94947.09;;;11.70;52.49
62697;BME280;48761;42.680;23.312;2023-04-09T13:10:42;94938.34;;;11.68;52.72
62697;BME280;48761;42.680;23.312;2023-04-09T13:13:09;94931.03;;;11.59;53.18
62697;BME280;48761;42.680;23.312;2023-04-09T13:15:35;94929.97;;;11.61;53.47